sensor_id;sensor_type;location;lat;lon;timestamp;P1;durP1;ratioP1;P2;durP2;ratioP2
8365;SDS011;4220;42.502;24.188;2022-11-14T00:00:21;19.30;;;15.67;;
8365;SDS011;4220;42.502;24.188;2022-11-14T00:02:48;20.53;;;15.73;;
8365;SDS011;4220;42.502;24.188;2022-11-14T00:05:15;20.77;;;14.37;;
8365;SDS011;4220;42.502;24.188;2022-11-14T00:07:43;18.27;;;14.27;;
8365;SDS011;4220;42.502;24.188;2022-11-14T00:10:11;18.50;;;14.13;;
8365;SDS011;4220;42.502;24.188;2022-11-14T00:12:38;17.40;;;13.40;;
8365;SDS011;4220;42.502;24.188;2022-11-14T00:15:06;25.97;;;14.27;;
8365;SDS011;4220;42.502;24.188;2022-11-14T00:17:33;16.63;;;13.27;;
8365;SDS011;4220;42.502;24.188;2022-11-14T00:20:00;23.90;;;14.47;;
8365;SDS011;4220;42.502;24.188;2022-11-14T00:22:27;17.37;;;12.47;;
8365;SDS011;4220;42.502;24.188;2022-11-14T00:24:54;16.37;;;11.80;;
8365;SDS011;4220;42.502;24.188;2022-11-14T00:27:22;14.47;;;11.03;;
8365;SDS011;4220;42.502;24.188;2022-11-14T00:29:49;18.77;;;13.23;;
8365;SDS011;4220;42.502;24.188;2022-11-14T00:32:17;20.17;;;14.23;;
8365;SDS011;4220;42.502;24.188;2022-11-14T00:34:44;23.50;;;16.93;;
8365;SDS011;4220;42.502;24.188;2022-11-14T00:37:11;22.03;;;15.77;;
8365;SDS011;4220;42.502;24.188;2022-11-14T00:39:37;20.13;;;15.03;;
8365;SDS011;4220;42.502;24.188;2022-11-14T00:42:04;25.57;;;18.37;;
8365;SDS011;4220;42.502;24.188;2022-11-14T00:44:33;26.00;;;20.83;;
8365;SDS011;4220;42.502;24.188;2022-11-14T00:46:59;27.50;;;19.43;;
8365;SDS011;4220;42.502;24.188;2022-11-14T00:49:26;28.70;;;19.97;;
8365;SDS011;4220;42.502;24.188;2022-11-14T00:51:53;24.80;;;18.97;;
8365;SDS011;4220;42.502;24.188;2022-11-14T00:54:20;25.27;;;19.17;;
8365;SDS011;4220;42.502;24.188;2022-11-14T00:56:47;34.73;;;22.10;;
8365;SDS011;4220;42.502;24.188;2022-11-14T00:59:13;39.67;;;25.53;;
8365;SDS011;4220;42.502;24.188;2022-11-14T01:01:42;29.40;;;21.57;;
8365;SDS011;4220;42.502;24.188;2022-11-14T01:04:08;28.50;;;20.47;;
8365;SDS011;4220;42.502;24.188;2022-11-14T01:06:35;25.33;;;18.27;;
8365;SDS011;4220;42.502;24.188;2022-11-14T01:09:02;19.00;;;14.80;;
8365;SDS011;4220;42.502;24.188;2022-11-14T01:11:29;17.77;;;13.97;;
8365;SDS011;4220;42.502;24.188;2022-11-14T01:13:56;18.60;;;14.57;;
8365;SDS011;4220;42.502;24.188;2022-11-14T01:16:23;20.47;;;15.33;;
8365;SDS011;4220;42.502;24.188;2022-11-14T01:18:51;19.43;;;15.17;;
8365;SDS011;4220;42.502;24.188;2022-11-14T01:21:18;20.20;;;14.63;;
8365;SDS011;4220;42.502;24.188;2022-11-14T01:23:44;18.97;;;14.90;;
8365;SDS011;4220;42.502;24.188;2022-11-14T01:26:12;19.40;;;14.10;;
8365;SDS011;4220;42.502;24.188;2022-11-14T01:28:40;24.73;;;17.00;;
8365;SDS011;4220;42.502;24.188;2022-11-14T01:31:08;21.20;;;15.53;;
8365;SDS011;4220;42.502;24.188;2022-11-14T01:33:39;23.00;;;16.07;;
8365;SDS011;4220;42.502;24.188;2022-11-14T01:36:07;28.60;;;17.33;;
8365;SDS011;4220;42.502;24.188;2022-11-14T01:38:36;19.67;;;14.97;;
8365;SDS011;4220;42.502;24.188;2022-11-14T01:41:03;20.77;;;15.67;;
8365;SDS011;4220;42.502;24.188;2022-11-14T01:43:31;21.07;;;15.07;;
8365;SDS011;4220;42.502;24.188;2022-11-14T01:46:00;18.77;;;14.97;;
8365;SDS011;4220;42.502;24.188;2022-11-14T01:48:34;18.07;;;14.47;;
8365;SDS011;4220;42.502;24.188;2022-11-14T01:51:11;22.93;;;16.17;;
8365;SDS011;4220;42.502;24.188;2022-11-14T01:53:45;21.43;;;16.60;;
8365;SDS011;4220;42.502;24.188;2022-11-14T01:56:17;21.40;;;16.07;;
8365;SDS011;4220;42.502;24.188;2022-11-14T01:58:49;18.23;;;15.03;;
8365;SDS011;4220;42.502;24.188;2022-11-14T02:01:22;19.57;;;15.13;;
8365;SDS011;4220;42.502;24.188;2022-11-14T02:03:50;22.03;;;15.53;;
8365;SDS011;4220;42.502;24.188;2022-11-14T02:06:21;21.40;;;15.20;;
8365;SDS011;4220;42.502;24.188;2022-11-14T02:08:51;20.33;;;15.57;;
8365;SDS011;4220;42.502;24.188;2022-11-14T02:11:19;24.03;;;16.17;;
8365;SDS011;4220;42.502;24.188;2022-11-14T02:13:46;23.23;;;17.07;;
8365;SDS011;4220;42.502;24.188;2022-11-14T02:16:12;22.83;;;15.13;;
8365;SDS011;4220;42.502;24.188;2022-11-14T02:18:40;21.53;;;15.50;;
8365;SDS011;4220;42.502;24.188;2022-11-14T02:21:08;20.67;;;15.70;;
8365;SDS011;4220;42.502;24.188;2022-11-14T02:23:35;21.27;;;14.97;;
8365;SDS011;4220;42.502;24.188;2022-11-14T02:26:01;20.30;;;14.00;;
8365;SDS011;4220;42.502;24.188;2022-11-14T02:28:28;15.90;;;13.03;;
8365;SDS011;4220;42.502;24.188;2022-11-14T02:30:55;15.67;;;11.67;;
8365;SDS011;4220;42.502;24.188;2022-11-14T02:33:22;17.67;;;12.67;;
8365;SDS011;4220;42.502;24.188;2022-11-14T02:35:49;17.43;;;14.03;;
8365;SDS011;4220;42.502;24.188;2022-11-14T02:38:17;18.90;;;13.77;;
8365;SDS011;4220;42.502;24.188;2022-11-14T02:40:44;20.30;;;14.43;;
8365;SDS011;4220;42.502;24.188;2022-11-14T02:43:11;18.37;;;13.57;;
8365;SDS011;4220;42.502;24.188;2022-11-14T02:45:37;19.00;;;14.03;;
8365;SDS011;4220;42.502;24.188;2022-11-14T02:48:04;19.73;;;14.63;;
8365;SDS011;4220;42.502;24.188;2022-11-14T02:50:31;20.40;;;14.70;;
8365;SDS011;4220;42.502;24.188;2022-11-14T02:52:58;19.73;;;14.07;;
8365;SDS011;4220;42.502;24.188;2022-11-14T02:55:26;19.77;;;14.20;;
8365;SDS011;4220;42.502;24.188;2022-11-14T02:57:53;18.37;;;13.67;;
8365;SDS011;4220;42.502;24.188;2022-11-14T03:00:20;18.93;;;14.33;;
8365;SDS011;4220;42.502;24.188;2022-11-14T03:02:47;19.67;;;14.07;;
8365;SDS011;4220;42.502;24.188;2022-11-14T03:05:14;15.87;;;12.87;;
8365;SDS011;4220;42.502;24.188;2022-11-14T03:07:40;20.97;;;14.13;;
8365;SDS011;4220;42.502;24.188;2022-11-14T03:10:08;19.00;;;12.30;;
8365;SDS011;4220;42.502;24.188;2022-11-14T03:12:36;14.93;;;11.83;;
8365;SDS011;4220;42.502;24.188;2022-11-14T03:15:03;17.73;;;12.57;;
8365;SDS011;4220;42.502;24.188;2022-11-14T03:17:32;14.93;;;11.57;;
8365;SDS011;4220;42.502;24.188;2022-11-14T03:19:59;16.83;;;11.80;;
8365;SDS011;4220;42.502;24.188;2022-11-14T03:22:26;14.27;;;11.63;;
8365;SDS011;4220;42.502;24.188;2022-11-14T03:24:53;16.20;;;11.77;;
8365;SDS011;4220;42.502;24.188;2022-11-14T03:27:19;15.70;;;12.00;;
8365;SDS011;4220;42.502;24.188;2022-11-14T03:29:47;15.80;;;12.07;;
8365;SDS011;4220;42.502;24.188;2022-11-14T03:32:14;18.10;;;12.97;;
8365;SDS011;4220;42.502;24.188;2022-11-14T03:34:41;18.57;;;13.83;;
8365;SDS011;4220;42.502;24.188;2022-11-14T03:37:08;21.80;;;15.77;;
8365;SDS011;4220;42.502;24.188;2022-11-14T03:39:36;19.43;;;15.07;;
8365;SDS011;4220;42.502;24.188;2022-11-14T03:42:02;20.67;;;15.30;;
8365;SDS011;4220;42.502;24.188;2022-11-14T03:44:29;21.77;;;15.90;;
8365;SDS011;4220;42.502;24.188;2022-11-14T03:46:57;21.90;;;15.80;;
8365;SDS011;4220;42.502;24.188;2022-11-14T03:49:24;31.90;;;18.53;;
8365;SDS011;4220;42.502;24.188;2022-11-14T03:51:51;30.27;;;20.47;;
8365;SDS011;4220;42.502;24.188;2022-11-14T03:54:18;30.80;;;18.90;;
8365;SDS011;4220;42.502;24.188;2022-11-14T03:56:45;30.97;;;20.00;;
8365;SDS011;4220;42.502;24.188;2022-11-14T03:59:12;28.77;;;18.47;;
8365;SDS011;4220;42.502;24.188;2022-11-14T04:01:38;22.07;;;17.40;;
8365;SDS011;4220;42.502;24.188;2022-11-14T04:04:06;18.70;;;14.70;;
8365;SDS011;4220;42.502;24.188;2022-11-14T04:06:33;18.57;;;14.00;;
8365;SDS011;4220;42.502;24.188;2022-11-14T04:09:00;19.20;;;13.90;;
8365;SDS011;4220;42.502;24.188;2022-11-14T04:11:27;19.67;;;14.07;;
8365;SDS011;4220;42.502;24.188;2022-11-14T04:13:54;21.30;;;14.20;;
8365;SDS011;4220;42.502;24.188;2022-11-14T04:16:21;20.20;;;14.47;;
8365;SDS011;4220;42.502;24.188;2022-11-14T04:18:47;21.37;;;14.50;;
8365;SDS011;4220;42.502;24.188;2022-11-14T04:21:16;20.30;;;15.53;;
8365;SDS011;4220;42.502;24.188;2022-11-14T04:23:42;25.53;;;17.77;;
8365;SDS011;4220;42.502;24.188;2022-11-14T04:26:09;24.40;;;16.50;;
8365;SDS011;4220;42.502;24.188;2022-11-14T04:28:36;22.70;;;16.60;;
8365;SDS011;4220;42.502;24.188;2022-11-14T04:31:03;38.27;;;27.93;;
8365;SDS011;4220;42.502;24.188;2022-11-14T04:33:30;34.03;;;26.90;;
8365;SDS011;4220;42.502;24.188;2022-11-14T04:35:57;26.17;;;18.90;;
8365;SDS011;4220;42.502;24.188;2022-11-14T04:38:25;21.13;;;16.87;;
8365;SDS011;4220;42.502;24.188;2022-11-14T04:40:52;23.87;;;16.10;;
8365;SDS011;4220;42.502;24.188;2022-11-14T04:43:19;37.83;;;25.97;;
8365;SDS011;4220;42.502;24.188;2022-11-14T04:45:46;346.43;;;194.70;;
8365;SDS011;4220;42.502;24.188;2022-11-14T04:48:13;339.33;;;176.20;;
8365;SDS011;4220;42.502;24.188;2022-11-14T04:50:40;93.60;;;61.03;;
8365;SDS011;4220;42.502;24.188;2022-11-14T04:53:07;250.33;;;137.13;;
8365;SDS011;4220;42.502;24.188;2022-11-14T04:55:35;112.83;;;64.57;;
8365;SDS011;4220;42.502;24.188;2022-11-14T04:58:02;149.67;;;87.57;;
8365;SDS011;4220;42.502;24.188;2022-11-14T05:00:29;170.60;;;96.13;;
8365;SDS011;4220;42.502;24.188;2022-11-14T05:02:57;58.17;;;39.17;;
8365;SDS011;4220;42.502;24.188;2022-11-14T05:05:24;29.50;;;20.57;;
8365;SDS011;4220;42.502;24.188;2022-11-14T05:07:50;234.57;;;136.03;;
8365;SDS011;4220;42.502;24.188;2022-11-14T05:10:17;260.60;;;150.43;;
8365;SDS011;4220;42.502;24.188;2022-11-14T05:12:45;74.23;;;46.73;;
8365;SDS011;4220;42.502;24.188;2022-11-14T05:15:12;83.93;;;46.87;;
8365;SDS011;4220;42.502;24.188;2022-11-14T05:17:39;51.43;;;33.43;;
8365;SDS011;4220;42.502;24.188;2022-11-14T05:20:06;29.77;;;21.47;;
8365;SDS011;4220;42.502;24.188;2022-11-14T05:22:34;31.80;;;21.13;;
8365;SDS011;4220;42.502;24.188;2022-11-14T05:25:00;29.00;;;19.27;;
8365;SDS011;4220;42.502;24.188;2022-11-14T05:27:27;26.17;;;17.77;;
8365;SDS011;4220;42.502;24.188;2022-11-14T05:29:56;22.87;;;17.23;;
8365;SDS011;4220;42.502;24.188;2022-11-14T05:32:23;43.30;;;25.53;;
8365;SDS011;4220;42.502;24.188;2022-11-14T05:34:49;30.70;;;20.53;;
8365;SDS011;4220;42.502;24.188;2022-11-14T05:37:16;20.60;;;14.43;;
8365;SDS011;4220;42.502;24.188;2022-11-14T05:39:43;21.67;;;14.47;;
8365;SDS011;4220;42.502;24.188;2022-11-14T05:42:10;20.27;;;13.20;;
8365;SDS011;4220;42.502;24.188;2022-11-14T05:44:37;16.87;;;12.53;;
8365;SDS011;4220;42.502;24.188;2022-11-14T05:47:05;21.50;;;14.63;;
8365;SDS011;4220;42.502;24.188;2022-11-14T05:49:31;23.80;;;15.67;;
8365;SDS011;4220;42.502;24.188;2022-11-14T05:51:58;26.40;;;17.67;;
8365;SDS011;4220;42.502;24.188;2022-11-14T05:54:25;29.57;;;18.67;;
8365;SDS011;4220;42.502;24.188;2022-11-14T05:56:52;26.00;;;18.50;;
8365;SDS011;4220;42.502;24.188;2022-11-14T05:59:19;35.53;;;25.30;;
8365;SDS011;4220;42.502;24.188;2022-11-14T06:01:46;54.67;;;32.97;;
8365;SDS011;4220;42.502;24.188;2022-11-14T06:04:14;45.80;;;30.17;;
8365;SDS011;4220;42.502;24.188;2022-11-14T06:06:41;41.30;;;28.87;;
8365;SDS011;4220;42.502;24.188;2022-11-14T06:09:07;42.17;;;31.17;;
8365;SDS011;4220;42.502;24.188;2022-11-14T06:11:34;44.83;;;31.30;;
8365;SDS011;4220;42.502;24.188;2022-11-14T06:14:01;54.93;;;35.33;;
8365;SDS011;4220;42.502;24.188;2022-11-14T06:16:28;58.23;;;37.83;;
8365;SDS011;4220;42.502;24.188;2022-11-14T06:18:55;53.13;;;34.43;;
8365;SDS011;4220;42.502;24.188;2022-11-14T06:21:23;47.57;;;32.57;;
8365;SDS011;4220;42.502;24.188;2022-11-14T06:23:51;48.37;;;29.03;;
8365;SDS011;4220;42.502;24.188;2022-11-14T06:26:19;51.60;;;31.07;;
8365;SDS011;4220;42.502;24.188;2022-11-14T06:28:47;59.83;;;37.63;;
8365;SDS011;4220;42.502;24.188;2022-11-14T06:31:14;69.60;;;38.57;;
8365;SDS011;4220;42.502;24.188;2022-11-14T06:33:42;49.30;;;32.17;;
8365;SDS011;4220;42.502;24.188;2022-11-14T06:36:09;39.83;;;27.10;;
8365;SDS011;4220;42.502;24.188;2022-11-14T06:38:38;43.27;;;28.23;;
8365;SDS011;4220;42.502;24.188;2022-11-14T06:41:07;43.80;;;30.23;;
8365;SDS011;4220;42.502;24.188;2022-11-14T06:43:35;36.57;;;27.20;;
8365;SDS011;4220;42.502;24.188;2022-11-14T06:46:03;50.50;;;33.93;;
8365;SDS011;4220;42.502;24.188;2022-11-14T06:48:32;49.00;;;34.83;;
8365;SDS011;4220;42.502;24.188;2022-11-14T06:50:59;49.47;;;33.50;;
8365;SDS011;4220;42.502;24.188;2022-11-14T06:53:28;44.80;;;30.97;;
8365;SDS011;4220;42.502;24.188;2022-11-14T06:55:58;48.70;;;29.43;;
8365;SDS011;4220;42.502;24.188;2022-11-14T06:58:26;42.67;;;28.03;;
8365;SDS011;4220;42.502;24.188;2022-11-14T07:00:53;39.27;;;28.43;;
8365;SDS011;4220;42.502;24.188;2022-11-14T07:03:20;47.37;;;30.93;;
8365;SDS011;4220;42.502;24.188;2022-11-14T07:05:47;44.90;;;30.50;;
8365;SDS011;4220;42.502;24.188;2022-11-14T07:08:14;39.97;;;29.47;;
8365;SDS011;4220;42.502;24.188;2022-11-14T07:10:41;40.70;;;28.20;;
8365;SDS011;4220;42.502;24.188;2022-11-14T07:13:09;41.00;;;28.63;;
8365;SDS011;4220;42.502;24.188;2022-11-14T07:15:36;38.20;;;28.43;;
8365;SDS011;4220;42.502;24.188;2022-11-14T07:18:03;42.20;;;28.60;;
8365;SDS011;4220;42.502;24.188;2022-11-14T07:20:30;49.50;;;30.07;;
8365;SDS011;4220;42.502;24.188;2022-11-14T07:22:57;41.20;;;28.47;;
8365;SDS011;4220;42.502;24.188;2022-11-14T07:25:24;41.67;;;30.20;;
8365;SDS011;4220;42.502;24.188;2022-11-14T07:27:51;39.23;;;28.10;;
8365;SDS011;4220;42.502;24.188;2022-11-14T07:30:19;38.77;;;27.63;;
8365;SDS011;4220;42.502;24.188;2022-11-14T07:32:46;41.17;;;30.40;;
8365;SDS011;4220;42.502;24.188;2022-11-14T07:35:20;42.73;;;29.40;;
8365;SDS011;4220;42.502;24.188;2022-11-14T07:37:47;46.60;;;32.50;;
8365;SDS011;4220;42.502;24.188;2022-11-14T07:40:14;44.50;;;32.63;;
8365;SDS011;4220;42.502;24.188;2022-11-14T07:42:41;45.23;;;32.17;;
8365;SDS011;4220;42.502;24.188;2022-11-14T07:45:08;46.50;;;33.10;;
8365;SDS011;4220;42.502;24.188;2022-11-14T07:47:37;48.23;;;35.17;;
8365;SDS011;4220;42.502;24.188;2022-11-14T07:50:04;52.20;;;36.73;;
8365;SDS011;4220;42.502;24.188;2022-11-14T07:52:32;45.73;;;34.13;;
8365;SDS011;4220;42.502;24.188;2022-11-14T07:54:59;50.80;;;37.57;;
8365;SDS011;4220;42.502;24.188;2022-11-14T07:57:26;48.37;;;35.90;;
8365;SDS011;4220;42.502;24.188;2022-11-14T07:59:52;47.47;;;36.40;;
8365;SDS011;4220;42.502;24.188;2022-11-14T08:02:19;59.40;;;44.23;;
8365;SDS011;4220;42.502;24.188;2022-11-14T08:04:47;55.67;;;41.80;;
8365;SDS011;4220;42.502;24.188;2022-11-14T08:07:14;59.13;;;43.67;;
8365;SDS011;4220;42.502;24.188;2022-11-14T08:09:41;55.50;;;41.47;;
8365;SDS011;4220;42.502;24.188;2022-11-14T08:12:08;46.97;;;32.17;;
8365;SDS011;4220;42.502;24.188;2022-11-14T08:14:34;39.97;;;28.07;;
8365;SDS011;4220;42.502;24.188;2022-11-14T08:17:01;37.50;;;27.83;;
8365;SDS011;4220;42.502;24.188;2022-11-14T08:19:28;31.27;;;25.33;;
8365;SDS011;4220;42.502;24.188;2022-11-14T08:21:56;38.87;;;25.20;;
8365;SDS011;4220;42.502;24.188;2022-11-14T08:24:23;30.97;;;23.77;;
8365;SDS011;4220;42.502;24.188;2022-11-14T08:26:50;32.63;;;24.60;;
8365;SDS011;4220;42.502;24.188;2022-11-14T08:29:16;36.80;;;25.33;;
8365;SDS011;4220;42.502;24.188;2022-11-14T08:31:44;31.93;;;23.43;;
8365;SDS011;4220;42.502;24.188;2022-11-14T08:34:11;25.93;;;21.67;;
8365;SDS011;4220;42.502;24.188;2022-11-14T08:36:38;28.97;;;21.37;;
8365;SDS011;4220;42.502;24.188;2022-11-14T08:39:07;29.67;;;21.13;;
8365;SDS011;4220;42.502;24.188;2022-11-14T08:41:34;29.13;;;21.23;;
8365;SDS011;4220;42.502;24.188;2022-11-14T08:44:01;29.07;;;19.53;;
8365;SDS011;4220;42.502;24.188;2022-11-14T08:46:27;20.87;;;17.47;;
8365;SDS011;4220;42.502;24.188;2022-11-14T08:48:54;26.07;;;17.87;;
8365;SDS011;4220;42.502;24.188;2022-11-14T08:51:21;18.70;;;15.40;;
8365;SDS011;4220;42.502;24.188;2022-11-14T08:53:48;23.33;;;17.50;;
8365;SDS011;4220;42.502;24.188;2022-11-14T08:56:17;22.17;;;14.87;;
8365;SDS011;4220;42.502;24.188;2022-11-14T08:58:44;14.00;;;11.60;;
8365;SDS011;4220;42.502;24.188;2022-11-14T09:01:11;17.17;;;11.83;;
8365;SDS011;4220;42.502;24.188;2022-11-14T09:03:38;16.90;;;11.80;;
8365;SDS011;4220;42.502;24.188;2022-11-14T09:06:05;15.67;;;10.60;;
8365;SDS011;4220;42.502;24.188;2022-11-14T09:08:32;12.40;;;10.60;;
8365;SDS011;4220;42.502;24.188;2022-11-14T09:10:59;11.13;;;9.87;;
8365;SDS011;4220;42.502;24.188;2022-11-14T09:13:28;12.60;;;10.07;;
8365;SDS011;4220;42.502;24.188;2022-11-14T09:15:57;12.10;;;9.13;;
8365;SDS011;4220;42.502;24.188;2022-11-14T09:18:24;12.10;;;10.80;;
8365;SDS011;4220;42.502;24.188;2022-11-14T09:20:51;11.87;;;9.93;;
8365;SDS011;4220;42.502;24.188;2022-11-14T09:23:18;12.87;;;10.20;;
8365;SDS011;4220;42.502;24.188;2022-11-14T09:25:44;15.37;;;10.03;;
8365;SDS011;4220;42.502;24.188;2022-11-14T09:28:11;11.53;;;10.07;;
8365;SDS011;4220;42.502;24.188;2022-11-14T09:30:39;12.87;;;9.93;;
8365;SDS011;4220;42.502;24.188;2022-11-14T09:33:06;12.23;;;10.70;;
8365;SDS011;4220;42.502;24.188;2022-11-14T09:35:33;12.57;;;10.63;;
8365;SDS011;4220;42.502;24.188;2022-11-14T09:38:02;14.27;;;10.53;;
8365;SDS011;4220;42.502;24.188;2022-11-14T09:40:30;11.98;;;9.57;;
8365;SDS011;4220;42.502;24.188;2022-11-14T09:43:22;14.05;;;9.77;;
8365;SDS011;4220;42.502;24.188;2022-11-14T09:46:00;12.15;;;9.55;;
8365;SDS011;4220;42.502;24.188;2022-11-14T09:48:28;14.10;;;10.00;;
8365;SDS011;4220;42.502;24.188;2022-11-14T09:51:01;13.43;;;8.98;;
8365;SDS011;4220;42.502;24.188;2022-11-14T09:53:33;13.02;;;10.60;;
8365;SDS011;4220;42.502;24.188;2022-11-14T09:56:08;10.10;;;9.02;;
8365;SDS011;4220;42.502;24.188;2022-11-14T09:58:39;10.70;;;9.38;;
8365;SDS011;4220;42.502;24.188;2022-11-14T10:01:09;11.18;;;9.10;;
8365;SDS011;4220;42.502;24.188;2022-11-14T10:03:45;11.32;;;8.90;;
8365;SDS011;4220;42.502;24.188;2022-11-14T10:06:21;11.75;;;9.55;;
8365;SDS011;4220;42.502;24.188;2022-11-14T10:08:59;10.60;;;9.50;;
8365;SDS011;4220;42.502;24.188;2022-11-14T10:11:37;13.23;;;9.27;;
8365;SDS011;4220;42.502;24.188;2022-11-14T10:17:10;12.60;;;9.73;;
8365;SDS011;4220;42.502;24.188;2022-11-14T10:19:45;12.27;;;10.10;;
8365;SDS011;4220;42.502;24.188;2022-11-14T10:22:19;10.70;;;9.43;;
8365;SDS011;4220;42.502;24.188;2022-11-14T10:25:06;10.93;;;9.25;;
8365;SDS011;4220;42.502;24.188;2022-11-14T10:27:45;14.70;;;11.68;;
8365;SDS011;4220;42.502;24.188;2022-11-14T10:30:25;12.05;;;10.70;;
8365;SDS011;4220;42.502;24.188;2022-11-14T10:33:08;10.98;;;9.80;;
8365;SDS011;4220;42.502;24.188;2022-11-14T10:35:45;13.43;;;10.10;;
8365;SDS011;4220;42.502;24.188;2022-11-14T10:38:18;13.60;;;10.45;;
8365;SDS011;4220;42.502;24.188;2022-11-14T10:40:52;12.98;;;9.98;;
8365;SDS011;4220;42.502;24.188;2022-11-14T10:43:22;13.95;;;12.25;;
8365;SDS011;4220;42.502;24.188;2022-11-14T10:45:56;14.48;;;10.20;;
8365;SDS011;4220;42.502;24.188;2022-11-14T10:48:32;14.57;;;9.80;;
8365;SDS011;4220;42.502;24.188;2022-11-14T10:51:02;12.55;;;10.20;;
8365;SDS011;4220;42.502;24.188;2022-11-14T10:53:40;13.10;;;10.35;;
8365;SDS011;4220;42.502;24.188;2022-11-14T10:56:14;11.80;;;9.43;;
8365;SDS011;4220;42.502;24.188;2022-11-14T10:58:41;11.88;;;10.68;;
8365;SDS011;4220;42.502;24.188;2022-11-14T11:04:04;12.13;;;10.70;;
8365;SDS011;4220;42.502;24.188;2022-11-14T11:06:38;11.82;;;9.82;;
8365;SDS011;4220;42.502;24.188;2022-11-14T11:09:06;11.30;;;9.80;;
8365;SDS011;4220;42.502;24.188;2022-11-14T11:11:55;10.95;;;9.57;;
8365;SDS011;4220;42.502;24.188;2022-11-14T11:14:23;10.77;;;9.43;;
8365;SDS011;4220;42.502;24.188;2022-11-14T11:19:57;13.27;;;9.07;;
8365;SDS011;4220;42.502;24.188;2022-11-14T11:22:49;12.50;;;9.77;;
8365;SDS011;4220;42.502;24.188;2022-11-14T11:25:28;11.20;;;10.00;;
8365;SDS011;4220;42.502;24.188;2022-11-14T11:28:04;13.60;;;10.00;;
8365;SDS011;4220;42.502;24.188;2022-11-14T11:30:32;10.88;;;9.77;;
8365;SDS011;4220;42.502;24.188;2022-11-14T11:33:15;9.82;;;8.82;;
8365;SDS011;4220;42.502;24.188;2022-11-14T11:35:49;11.73;;;8.80;;
8365;SDS011;4220;42.502;24.188;2022-11-14T11:38:20;12.13;;;9.35;;
8365;SDS011;4220;42.502;24.188;2022-11-14T11:40:49;10.95;;;9.32;;
8365;SDS011;4220;42.502;24.188;2022-11-14T11:43:22;12.35;;;9.88;;
8365;SDS011;4220;42.502;24.188;2022-11-14T11:45:55;10.40;;;8.50;;
8365;SDS011;4220;42.502;24.188;2022-11-14T11:48:27;11.32;;;9.25;;
8365;SDS011;4220;42.502;24.188;2022-11-14T11:51:04;13.00;;;8.82;;
8365;SDS011;4220;42.502;24.188;2022-11-14T11:53:36;10.77;;;9.68;;
8365;SDS011;4220;42.502;24.188;2022-11-14T11:56:09;11.65;;;9.55;;
8365;SDS011;4220;42.502;24.188;2022-11-14T11:58:40;13.30;;;9.75;;
8365;SDS011;4220;42.502;24.188;2022-11-14T12:01:11;10.80;;;9.65;;
8365;SDS011;4220;42.502;24.188;2022-11-14T12:03:39;12.73;;;10.40;;
8365;SDS011;4220;42.502;24.188;2022-11-14T12:06:13;10.70;;;9.60;;
8365;SDS011;4220;42.502;24.188;2022-11-14T12:08:45;11.15;;;9.98;;
8365;SDS011;4220;42.502;24.188;2022-11-14T12:11:27;16.35;;;10.02;;
8365;SDS011;4220;42.502;24.188;2022-11-14T12:14:08;11.25;;;9.35;;
8365;SDS011;4220;42.502;24.188;2022-11-14T12:20:06;10.65;;;8.98;;
8365;SDS011;4220;42.502;24.188;2022-11-14T12:25:59;10.50;;;9.48;;
8365;SDS011;4220;42.502;24.188;2022-11-14T12:28:43;10.95;;;9.00;;
8365;SDS011;4220;42.502;24.188;2022-11-14T12:31:24;12.35;;;9.82;;
8365;SDS011;4220;42.502;24.188;2022-11-14T12:33:56;10.05;;;9.07;;
8365;SDS011;4220;42.502;24.188;2022-11-14T12:36:26;10.32;;;9.15;;
8365;SDS011;4220;42.502;24.188;2022-11-14T12:38:57;9.38;;;8.05;;
8365;SDS011;4220;42.502;24.188;2022-11-14T12:41:26;11.10;;;10.00;;
8365;SDS011;4220;42.502;24.188;2022-11-14T12:49:56;9.80;;;8.88;;
8365;SDS011;4220;42.502;24.188;2022-11-14T12:52:47;9.63;;;8.65;;
8365;SDS011;4220;42.502;24.188;2022-11-14T12:58:17;33.10;;;25.40;;
8365;SDS011;4220;42.502;24.188;2022-11-14T13:00:57;18.95;;;15.75;;
8365;SDS011;4220;42.502;24.188;2022-11-14T13:03:42;15.95;;;12.38;;
8365;SDS011;4220;42.502;24.188;2022-11-14T13:06:21;12.63;;;11.35;;
8365;SDS011;4220;42.502;24.188;2022-11-14T13:08:57;14.85;;;12.15;;
8365;SDS011;4220;42.502;24.188;2022-11-14T13:11:40;13.02;;;11.02;;
8365;SDS011;4220;42.502;24.188;2022-11-14T13:14:28;11.25;;;9.98;;
8365;SDS011;4220;42.502;24.188;2022-11-14T13:17:22;11.10;;;9.52;;
8365;SDS011;4220;42.502;24.188;2022-11-14T13:20:28;11.07;;;9.50;;
8365;SDS011;4220;42.502;24.188;2022-11-14T13:35:41;10.93;;;9.80;;
8365;SDS011;4220;42.502;24.188;2022-11-14T13:38:28;12.23;;;10.93;;
8365;SDS011;4220;42.502;24.188;2022-11-14T13:41:20;13.73;;;11.02;;
8365;SDS011;4220;42.502;24.188;2022-11-14T13:44:23;15.40;;;11.45;;
8365;SDS011;4220;42.502;24.188;2022-11-14T13:47:09;11.52;;;10.32;;
8365;SDS011;4220;42.502;24.188;2022-11-14T13:49:51;13.70;;;10.50;;
8365;SDS011;4220;42.502;24.188;2022-11-14T13:52:27;10.73;;;9.52;;
8365;SDS011;4220;42.502;24.188;2022-11-14T13:54:56;13.45;;;11.32;;
8365;SDS011;4220;42.502;24.188;2022-11-14T13:57:27;27.30;;;22.58;;
8365;SDS011;4220;42.502;24.188;2022-11-14T14:00:09;46.75;;;37.88;;
8365;SDS011;4220;42.502;24.188;2022-11-14T14:02:45;16.85;;;13.65;;
8365;SDS011;4220;42.502;24.188;2022-11-14T14:05:24;18.80;;;14.73;;
8365;SDS011;4220;42.502;24.188;2022-11-14T14:08:01;14.65;;;13.15;;
8365;SDS011;4220;42.502;24.188;2022-11-14T14:10:39;15.48;;;11.95;;
8365;SDS011;4220;42.502;24.188;2022-11-14T14:13:19;18.48;;;16.42;;
8365;SDS011;4220;42.502;24.188;2022-11-14T14:15:57;19.55;;;15.13;;
8365;SDS011;4220;42.502;24.188;2022-11-14T14:18:35;18.77;;;12.65;;
8365;SDS011;4220;42.502;24.188;2022-11-14T14:21:18;14.32;;;11.80;;
8365;SDS011;4220;42.502;24.188;2022-11-14T14:24:05;11.65;;;10.30;;
8365;SDS011;4220;42.502;24.188;2022-11-14T14:26:48;13.63;;;11.15;;
8365;SDS011;4220;42.502;24.188;2022-11-14T14:29:29;14.95;;;11.15;;
8365;SDS011;4220;42.502;24.188;2022-11-14T14:32:12;15.90;;;11.40;;
8365;SDS011;4220;42.502;24.188;2022-11-14T14:34:41;15.27;;;12.50;;
8365;SDS011;4220;42.502;24.188;2022-11-14T14:37:13;18.23;;;12.23;;
8365;SDS011;4220;42.502;24.188;2022-11-14T14:39:54;167.13;;;138.57;;
8365;SDS011;4220;42.502;24.188;2022-11-14T14:42:22;58.67;;;50.42;;
8365;SDS011;4220;42.502;24.188;2022-11-14T14:44:49;32.75;;;23.02;;
8365;SDS011;4220;42.502;24.188;2022-11-14T14:47:17;21.02;;;13.55;;
8365;SDS011;4220;42.502;24.188;2022-11-14T14:49:58;15.77;;;12.40;;
8365;SDS011;4220;42.502;24.188;2022-11-14T14:52:28;14.95;;;12.50;;
8365;SDS011;4220;42.502;24.188;2022-11-14T14:54:57;20.42;;;15.13;;
8365;SDS011;4220;42.502;24.188;2022-11-14T14:57:26;24.02;;;16.05;;
8365;SDS011;4220;42.502;24.188;2022-11-14T14:59:57;21.50;;;16.70;;
8365;SDS011;4220;42.502;24.188;2022-11-14T15:02:25;22.88;;;19.38;;
8365;SDS011;4220;42.502;24.188;2022-11-14T15:04:53;31.27;;;22.63;;
8365;SDS011;4220;42.502;24.188;2022-11-14T15:07:22;34.28;;;25.20;;
8365;SDS011;4220;42.502;24.188;2022-11-14T15:09:52;40.47;;;25.75;;
8365;SDS011;4220;42.502;24.188;2022-11-14T15:12:20;34.58;;;26.70;;
8365;SDS011;4220;42.502;24.188;2022-11-14T15:14:49;35.17;;;23.98;;
8365;SDS011;4220;42.502;24.188;2022-11-14T15:17:17;29.40;;;21.67;;
8365;SDS011;4220;42.502;24.188;2022-11-14T15:19:44;30.23;;;22.08;;
8365;SDS011;4220;42.502;24.188;2022-11-14T15:22:23;29.17;;;21.45;;
8365;SDS011;4220;42.502;24.188;2022-11-14T15:25:14;33.25;;;22.88;;
8365;SDS011;4220;42.502;24.188;2022-11-14T15:27:45;37.25;;;29.17;;
8365;SDS011;4220;42.502;24.188;2022-11-14T15:30:21;37.95;;;27.55;;